Time;durP1;ratioP1;P1;durP2;ratioP2;P2;SDS_P1;SDS_P2;PMS_P1;PMS_P2;Temp;Humidity;BMP_temperature;BMP_pressure;BME280_temperature;BME280_humidity;BME280_pressure;Samples;Min_cycle;Max_cycle;Signal;HPM_P1;HPM_P2
2023/05/31 00:00:04;;;;;;;21.10;9.77;;;;;;;-146.25;100.00;52238.44;2073071;28;20034;-66
2023/05/31 00:01:05;;;;;;;20.35;8.88;;;;;;;-146.25;100.00;52220.19;2072851;28;20046;-65
2023/05/31 00:02:07;;;;;;;22.88;10.27;;;;;;;-146.25;100.00;52236.41;2072733;28;20167;-65
2023/05/31 00:03:10;;;;;;;24.83;9.38;;;;;;;-146.25;100.00;52214.09;2072845;28;20185;-66
2023/05/31 00:04:11;;;;;;;23.55;10.65;;;;;;;-146.25;100.00;52234.38;2064479;28;20034;-65
2023/05/31 00:05:11;;;;;;;19.02;9.25;;;;;;;-146.25;100.00;52201.94;2064903;28;20046;-65
2023/05/31 00:06:12;;;;;;;17.55;8.57;;;;;;;-146.25;100.00;52201.94;2072761;28;20492;-65
2023/05/31 00:07:13;;;;;;;21.30;9.60;;;;;;;-146.25;100.00;52218.16;2072816;28;20377;-66
2023/05/31 00:08:13;;;;;;;25.88;10.20;;;;;;;-146.25;100.00;52222.22;2063818;28;20488;-65
2023/05/31 00:09:16;;;;;;;27.45;10.18;;;;;;;-146.25;100.00;52208.03;2064883;28;20153;-66
2023/05/31 00:10:19;;;;;;;22.52;10.30;;;;;;;-146.25;100.00;52218.16;2064551;28;20039;-65
2023/05/31 00:11:22;;;;;;;20.63;9.25;;;;;;;-146.25;100.00;52228.28;2065633;28;20074;-66
2023/05/31 00:12:25;;;;;;;18.77;8.90;;;;;;;-146.25;100.00;52203.97;2072715;28;20117;-66
2023/05/31 00:13:27;;;;;;;25.58;10.38;;;;;;;-146.25;100.00;52248.56;2080239;28;32609;-67
2023/05/31 00:14:29;;;;;;;19.05;9.93;;;;;;;-146.25;100.00;52234.38;2080933;28;32468;-66
2023/05/31 00:15:31;;;;;;;19.27;10.02;;;;;;;-146.25;100.00;52230.31;2081031;28;33500;-65
2023/05/31 00:16:33;;;;;;;15.85;8.40;;;;;;;-146.25;100.00;52260.72;2081247;28;31799;-66
2023/05/31 00:17:37;;;;;;;17.90;8.65;;;;;;;-146.25;100.00;52210.03;2081526;28;20057;-65
2023/05/31 00:18:42;;;;;;;21.95;9.57;;;;;;;-146.25;100.00;52226.25;2081063;28;20116;-65
2023/05/31 00:19:44;;;;;;;19.60;8.60;;;;;;;-146.25;100.00;52234.38;2080822;28;36079;-66
2023/05/31 00:20:46;;;;;;;22.50;9.52;;;;;;;-146.25;100.00;52230.31;2080373;28;35121;-64
2023/05/31 00:21:48;;;;;;;24.02;9.25;;;;;;;-146.25;100.00;52226.25;2080692;28;33418;-65
2023/05/31 00:22:49;;;;;;;21.55;9.60;;;;;;;-146.25;100.00;52218.16;2080662;28;37493;-65
2023/05/31 00:23:53;;;;;;;17.98;8.88;;;;;;;-146.25;100.00;52230.31;2080838;28;38988;-65
2023/05/31 00:24:55;;;;;;;19.42;9.18;;;;;;;-146.25;100.00;52214.09;2080743;28;29777;-64
2023/05/31 00:25:57;;;;;;;21.67;9.18;;;;;;;-146.25;100.00;52212.06;2080517;28;39063;-65
2023/05/31 00:26:59;;;;;;;24.30;9.82;;;;;;;-146.25;100.00;52216.13;2088477;28;33503;-64
2023/05/31 00:28:00;;;;;;;22.77;10.60;;;;;;;-146.25;100.00;52218.16;2088857;28;20064;-65
2023/05/31 00:29:02;;;;;;;21.38;8.88;;;;;;;-146.25;100.00;52254.66;2080948;28;30018;-65
2023/05/31 00:30:07;;;;;;;21.88;8.98;;;;;;;-146.25;100.00;52206.00;2081692;28;20172;-64
2023/05/31 00:31:11;;;;;;;19.67;8.85;;;;;;;-146.25;100.00;52226.25;2080898;28;20240;-64
2023/05/31 00:32:13;;;;;;;20.95;9.52;;;;;;;-146.25;100.00;52240.47;2081376;28;22396;-65
2023/05/31 00:33:15;;;;;;;19.48;9.38;;;;;;;-146.25;100.00;52246.53;2081669;28;20081;-65
2023/05/31 00:34:17;;;;;;;22.65;9.90;;;;;;;-146.25;100.00;52232.34;2081057;28;28607;-64
2023/05/31 00:35:18;;;;;;;20.33;9.30;;;;;;;-146.25;100.00;52210.03;2079896;28;25074;-65
2023/05/31 00:36:21;;;;;;;23.00;9.70;;;;;;;-146.25;100.00;52214.09;2080968;28;20026;-65
2023/05/31 00:37:24;;;;;;;20.65;9.27;;;;;;;-146.25;100.00;52216.13;2088686;28;20148;-64
2023/05/31 00:38:27;;;;;;;23.15;9.77;;;;;;;-146.25;100.00;52212.06;2088893;28;20054;-66
2023/05/31 00:39:29;;;;;;;18.92;8.68;;;;;;;-146.25;100.00;52197.88;2080882;28;28537;-65
2023/05/31 00:40:32;;;;;;;18.85;9.02;;;;;;;-146.25;100.00;52246.53;2081165;28;20921;-65
2023/05/31 00:41:34;;;;;;;15.32;7.70;;;;;;;-146.25;100.00;52210.03;2081094;28;21053;-65
2023/05/31 00:42:35;;;;;;;15.25;7.60;;;;;;;-146.25;100.00;52197.88;2081368;28;20038;-66
2023/05/31 00:43:37;;;;;;;19.10;9.18;;;;;;;-146.25;100.00;52228.28;2080951;28;22699;-65
2023/05/31 00:44:39;;;;;;;18.17;8.45;;;;;;;-146.25;100.00;52240.47;2081519;28;20168;-65
2023/05/31 00:45:41;;;;;;;15.75;7.75;;;;;;;-146.25;100.00;52238.44;2080005;28;27133;-65
2023/05/31 00:46:43;;;;;;;20.15;8.40;;;;;;;-146.25;100.00;52238.44;2079685;28;31803;-65
2023/05/31 00:47:45;;;;;;;18.58;8.88;;;;;;;-146.25;100.00;52238.44;2088269;28;24884;-65
2023/05/31 00:48:49;;;;;;;17.25;8.48;;;;;;;-146.25;100.00;52220.19;2080719;28;20042;-65
2023/05/31 00:49:54;;;;;;;18.08;7.80;;;;;;;-146.25;100.00;52228.28;2072717;28;20045;-65
2023/05/31 00:50:56;;;;;;;17.20;8.15;;;;;;;-146.25;100.00;52220.19;2080466;28;21121;-64
2023/05/31 00:51:59;;;;;;;21.67;9.05;;;;;;;-146.25;100.00;52254.66;2088718;28;20056;-65
2023/05/31 00:53:02;;;;;;;19.25;7.82;;;;;;;-146.25;100.00;52214.09;2071910;28;25512;-65
2023/05/31 00:54:05;;;;;;;21.48;7.93;;;;;;;-146.25;100.00;52234.38;2064372;28;34802;-65
2023/05/31 00:55:08;;;;;;;20.17;8.55;;;;;;;-146.25;100.00;52224.25;2080874;28;28986;-65
2023/05/31 00:56:15;;;;;;;16.65;8.75;;;;;;;-146.25;100.00;52246.53;2079847;28;20038;-65
2023/05/31 00:57:20;;;;;;;24.38;8.52;;;;;;;-146.25;100.00;52256.69;2080615;28;21067;-64
2023/05/31 00:58:24;;;;;;;23.67;9.48;;;;;;;-146.25;100.00;52236.41;2080593;28;25600;-65
2023/05/31 00:59:25;;;;;;;20.85;8.80;;;;;;;-146.25;100.00;52218.16;2080908;28;30216;-65
2023/05/31 01:00:29;;;;;;;21.08;8.60;;;;;;;-146.25;100.00;52214.09;2087875;28;26935;-64
2023/05/31 01:01:32;;;;;;;16.80;8.82;;;;;;;-146.25;100.00;52210.03;2079853;28;25894;-64
2023/05/31 01:02:37;;;;;;;23.23;9.43;;;;;;;-146.25;100.00;52210.03;2079933;28;27666;-66
2023/05/31 01:03:42;;;;;;;21.95;8.85;;;;;;;-146.25;100.00;52252.63;2080760;28;32172;-65
2023/05/31 01:04:48;;;;;;;15.48;7.35;;;;;;;-146.25;100.00;52234.38;2088370;28;20050;-64
2023/05/31 01:05:52;;;;;;;18.95;8.60;;;;;;;-146.25;100.00;52244.50;2080609;28;20140;-65
2023/05/31 01:06:56;;;;;;;21.42;9.05;;;;;;;-146.25;100.00;52264.78;2079904;28;29753;-65
2023/05/31 01:07:57;;;;;;;15.07;7.88;;;;;;;-146.25;100.00;52238.44;2080349;28;22619;-65
2023/05/31 01:09:06;;;;;;;16.13;8.30;;;;;;;-146.25;100.00;52240.47;2071924;28;28837;-65
2023/05/31 01:10:08;;;;;;;21.20;8.27;;;;;;;-146.25;100.00;52212.06;2073723;28;20156;-64
2023/05/31 01:11:51;;;;;;;16.73;7.72;;;;;;;-146.25;100.00;52226.25;2073196;28;20780;-65
2023/05/31 01:13:10;;;;;;;17.90;7.70;;;;;;;-146.25;100.00;52238.44;2079446;28;38103;-64
2023/05/31 01:14:30;;;;;;;16.70;7.20;;;;;;;-146.25;100.00;52226.25;2066161;28;30782;-65
2023/05/31 01:15:52;;;;;;;15.70;7.22;;;;;;;-146.25;100.00;52240.47;2077378;28;20144;-66
2023/05/31 01:17:08;;;;;;;17.65;7.72;;;;;;;-146.25;100.00;52203.97;2087950;28;37804;-65
2023/05/31 01:18:32;;;;;;;16.98;7.93;;;;;;;-146.25;100.00;52218.16;2080807;28;20034;-65
2023/05/31 01:19:47;;;;;;;20.02;8.25;;;;;;;-146.25;100.00;52248.56;2076613;28;31783;-65
2023/05/31 01:20:56;;;;;;;18.00;7.80;;;;;;;-146.25;100.00;52216.13;2068110;28;20940;-65
2023/05/31 01:22:17;;;;;;;17.77;8.52;;;;;;;-146.25;100.00;52240.47;2073655;28;34525;-65
2023/05/31 01:23:42;;;;;;;20.95;8.77;;;;;;;-146.25;100.00;52258.72;2088362;28;20746;-65
2023/05/31 01:25:22;;;;;;;16.48;8.07;;;;;;;-146.25;100.00;52236.41;2080325;28;27303;-66
2023/05/31 01:26:49;;;;;;;20.90;8.52;;;;;;;-146.25;100.00;52216.13;2086023;28;20044;-66
2023/05/31 01:27:53;;;;;;;20.80;8.98;;;;;;;-146.25;100.00;52226.25;2080227;28;26055;-65
2023/05/31 01:29:00;;;;;;;20.42;9.40;;;;;;;-146.25;100.00;52254.66;2072602;28;33207;-65
2023/05/31 01:30:05;;;;;;;20.95;8.30;;;;;;;-146.25;100.00;52242.50;2072351;28;36204;-65
2023/05/31 01:31:11;;;;;;;19.92;9.35;;;;;;;-146.25;100.00;52230.31;2080666;28;20077;-65
2023/05/31 01:32:15;;;;;;;18.58;9.00;;;;;;;-146.25;100.00;52234.38;2072721;28;28371;-65
2023/05/31 01:33:20;;;;;;;21.08;8.25;;;;;;;-146.25;100.00;52238.44;2072803;28;20039;-65
2023/05/31 01:34:24;;;;;;;23.42;8.82;;;;;;;-146.25;100.00;52218.16;2080190;28;20956;-65
2023/05/31 01:35:27;;;;;;;22.50;9.38;;;;;;;-146.25;100.00;52220.19;2080027;28;29959;-65
2023/05/31 01:36:28;;;;;;;20.10;8.93;;;;;;;-146.25;100.00;52240.47;2080627;28;34424;-65
2023/05/31 01:37:30;;;;;;;18.88;8.45;;;;;;;-146.25;100.00;52216.13;2080700;28;29822;-65
2023/05/31 01:38:32;;;;;;;21.00;8.25;;;;;;;-146.25;100.00;52234.38;2080461;28;29551;-65
2023/05/31 01:39:36;;;;;;;21.75;9.50;;;;;;;-146.25;100.00;52203.97;2081125;28;20030;-65
2023/05/31 01:40:42;;;;;;;24.65;9.77;;;;;;;-146.25;100.00;52234.38;2079596;28;28866;-65
2023/05/31 01:41:48;;;;;;;18.17;8.77;;;;;;;-146.25;100.00;52236.41;2080436;28;20641;-65
2023/05/31 01:42:54;;;;;;;18.98;8.77;;;;;;;-146.25;100.00;52226.25;2081178;28;20127;-65
2023/05/31 01:43:57;;;;;;;20.35;9.00;;;;;;;-146.25;100.00;52224.25;2080854;28;20169;-66
2023/05/31 01:45:00;;;;;;;19.13;9.05;;;;;;;-146.25;100.00;52246.53;2081312;28;20841;-65
2023/05/31 01:46:03;;;;;;;24.00;9.38;;;;;;;-146.25;100.00;52210.03;2088222;28;20045;-65
2023/05/31 01:47:08;;;;;;;26.45;9.20;;;;;;;-146.25;100.00;52246.53;2072015;28;20185;-66
2023/05/31 01:48:11;;;;;;;22.73;9.13;;;;;;;-146.25;100.00;52244.50;2056939;28;20997;-66
2023/05/31 01:49:13;;;;;;;22.13;9.32;;;;;;;-146.25;100.00;52248.56;2064130;28;29698;-66
2023/05/31 01:50:18;;;;;;;22.45;8.90;;;;;;;-146.25;100.00;52260.72;2063703;28;20094;-68
2023/05/31 01:51:21;;;;;;;21.80;9.25;;;;;;;-146.25;100.00;52240.47;2064971;28;20047;-65
2023/05/31 01:52:25;;;;;;;21.10;9.23;;;;;;;-146.25;100.00;52201.94;2071602;28;20092;-64
2023/05/31 01:53:28;;;;;;;24.20;9.43;;;;;;;-146.25;100.00;52216.13;2065002;28;20031;-64
2023/05/31 01:54:30;;;;;;;22.80;8.93;;;;;;;-146.25;100.00;52230.31;2080375;28;23362;-66
2023/05/31 01:55:32;;;;;;;26.30;10.30;;;;;;;-146.25;100.00;52252.63;2080799;28;23968;-65
2023/05/31 01:56:36;;;;;;;26.83;10.05;;;;;;;-146.25;100.00;52242.50;2079958;28;20046;-65
2023/05/31 01:57:43;;;;;;;22.38;9.80;;;;;;;-146.25;100.00;52218.16;2064930;28;20046;-64
2023/05/31 01:58:48;;;;;;;27.58;10.48;;;;;;;-146.25;100.00;52260.72;2064019;28;20039;-67
2023/05/31 01:59:51;;;;;;;24.98;9.45;;;;;;;-146.25;100.00;52234.38;2064632;28;20959;-64
2023/05/31 02:00:58;;;;;;;25.65;10.45;;;;;;;-146.25;100.00;52234.38;2055914;28;21297;-67
2023/05/31 02:02:01;;;;;;;22.35;9.40;;;;;;;-146.25;100.00;52246.53;2057480;28;20118;-65
2023/05/31 02:03:04;;;;;;;27.63;10.15;;;;;;;-146.25;100.00;52240.47;2056119;28;21031;-65
2023/05/31 02:04:06;;;;;;;27.27;10.07;;;;;;;-146.25;100.00;52254.66;2056709;28;20207;-65
2023/05/31 02:05:13;;;;;;;25.48;10.00;;;;;;;-146.25;100.00;52268.84;2070905;28;33186;-64
2023/05/31 02:06:15;;;;;;;25.35;9.55;;;;;;;-146.25;100.00;52244.50;2072105;28;20968;-64
2023/05/31 02:07:16;;;;;;;28.33;10.07;;;;;;;-146.25;100.00;52201.94;2072280;28;20925;-65
2023/05/31 02:08:18;;;;;;;32.60;11.05;;;;;;;-146.25;100.00;52254.66;2079692;28;20105;-66
2023/05/31 02:09:21;;;;;;;28.88;9.55;;;;;;;-146.25;100.00;52181.66;2079747;28;25046;-65
2023/05/31 02:10:23;;;;;;;31.27;11.30;;;;;;;-146.25;100.00;52222.22;2072015;28;20996;-65
2023/05/31 02:11:27;;;;;;;34.42;10.65;;;;;;;-146.25;100.00;52246.53;2063514;28;20043;-65
2023/05/31 02:12:32;;;;;;;27.58;10.27;;;;;;;-146.25;100.00;52234.38;2056274;28;20035;-66
2023/05/31 02:13:35;;;;;;;30.00;10.10;;;;;;;-146.25;100.00;52216.13;2048193;28;26617;-65
2023/05/31 02:14:37;;;;;;;24.60;9.77;;;;;;;-146.25;100.00;52230.31;2056314;28;20047;-65
2023/05/31 02:15:41;;;;;;;28.27;9.90;;;;;;;-146.25;100.00;52216.13;2071115;28;23850;-65
2023/05/31 02:16:44;;;;;;;27.05;9.60;;;;;;;-146.25;100.00;52246.53;2071567;28;20072;-65
2023/05/31 02:17:50;;;;;;;27.08;10.63;;;;;;;-146.25;100.00;52254.66;2071606;28;20109;-65
2023/05/31 02:18:52;;;;;;;31.75;9.95;;;;;;;-146.25;100.00;52234.38;2072393;28;21506;-66
2023/05/31 02:19:57;;;;;;;26.10;10.73;;;;;;;-146.25;100.00;52234.38;2079805;28;20034;-65
2023/05/31 02:20:58;;;;;;;29.08;10.55;;;;;;;-146.25;100.00;52218.16;2071495;28;20043;-65
2023/05/31 02:22:03;;;;;;;25.30;9.57;;;;;;;-146.25;100.00;52287.09;2063016;28;20046;-66
2023/05/31 02:23:11;;;;;;;28.33;10.05;;;;;;;-146.25;100.00;52224.25;2064439;28;20035;-65
2023/05/31 02:24:13;;;;;;;27.80;10.48;;;;;;;-146.25;100.00;52220.19;2063425;28;27265;-65
2023/05/31 02:25:15;;;;;;;30.02;10.73;;;;;;;-146.25;100.00;52274.94;2063746;28;20050;-65
2023/05/31 02:26:18;;;;;;;33.80;11.40;;;;;;;-146.25;100.00;52218.16;2071240;28;20049;-65
2023/05/31 02:27:19;;;;;;;30.38;10.23;;;;;;;-146.25;100.00;52193.81;2079564;28;27455;-66
2023/05/31 02:28:21;;;;;;;28.40;10.15;;;;;;;-146.25;100.00;52270.88;2079462;28;20145;-67
2023/05/31 02:29:28;;;;;;;32.45;10.80;;;;;;;-146.25;100.00;52240.47;2080003;28;20269;-66
2023/05/31 02:30:31;;;;;;;33.45;11.48;;;;;;;-146.25;100.00;52248.56;2079503;28;28298;-66
2023/05/31 02:31:35;;;;;;;31.67;10.43;;;;;;;-146.25;100.00;52201.94;2071863;28;25007;-66
2023/05/31 02:32:37;;;;;;;25.83;9.70;;;;;;;-146.25;100.00;52226.25;2071028;28;28127;-66
2023/05/31 02:33:44;;;;;;;33.08;11.68;;;;;;;-146.25;100.00;52256.69;2071956;28;21016;-66
2023/05/31 02:34:46;;;;;;;32.47;11.13;;;;;;;-146.25;100.00;52228.28;2063416;28;20101;-65
2023/05/31 02:35:49;;;;;;;28.60;11.18;;;;;;;-146.25;100.00;52236.41;2063979;28;25972;-66
2023/05/31 02:36:53;;;;;;;32.22;11.05;;;;;;;-146.25;100.00;52210.03;2079627;28;20038;-66
2023/05/31 02:37:59;;;;;;;32.58;11.07;;;;;;;-146.25;100.00;52274.94;2080115;28;20042;-66
2023/05/31 02:39:01;;;;;;;31.48;11.15;;;;;;;-146.25;100.00;52222.22;2072493;28;22250;-66
2023/05/31 02:40:09;;;;;;;29.85;10.43;;;;;;;-146.25;100.00;52238.44;2071604;28;25365;-66
2023/05/31 02:41:12;;;;;;;33.45;10.98;;;;;;;-146.25;100.00;52242.50;2071671;28;28474;-65
2023/05/31 02:42:14;;;;;;;28.20;10.10;;;;;;;-146.25;100.00;52218.16;2072062;28;20136;-66
2023/05/31 02:43:16;;;;;;;30.23;10.38;;;;;;;-146.25;100.00;52208.03;2079656;28;20942;-66
2023/05/31 02:44:20;;;;;;;26.75;10.10;;;;;;;-146.25;100.00;52206.00;2071239;28;21990;-66
2023/05/31 02:45:23;;;;;;;30.73;11.15;;;;;;;-146.25;100.00;52210.03;2063780;28;20039;-66
2023/05/31 02:46:25;;;;;;;27.58;10.38;;;;;;;-146.25;100.00;52222.22;2069340;28;20058;-66
2023/05/31 02:47:27;;;;;;;26.38;10.43;;;;;;;-146.25;100.00;52193.81;2071479;28;20035;-66
2023/05/31 02:48:29;;;;;;;31.38;11.07;;;;;;;-146.25;100.00;52268.84;2080047;28;20546;-66
2023/05/31 02:49:32;;;;;;;31.50;10.77;;;;;;;-146.25;100.00;52238.44;2079803;28;20146;-66
2023/05/31 02:50:34;;;;;;;28.25;11.32;;;;;;;-146.25;100.00;52216.13;2071503;28;20050;-67
2023/05/31 02:51:37;;;;;;;29.92;10.32;;;;;;;-146.25;100.00;52228.28;2080071;28;20461;-66
2023/05/31 02:52:39;;;;;;;34.63;11.30;;;;;;;-146.25;100.00;52214.09;2079884;28;20046;-66
2023/05/31 02:54:00;;;;;;;25.15;8.93;;;;;;;-146.25;100.00;52224.25;2073763;28;20054;-66
2023/05/31 02:55:05;;;;;;;26.85;9.80;;;;;;;-146.25;100.00;52226.25;2072113;28;20061;-67
2023/05/31 02:56:16;;;;;;;27.58;10.57;;;;;;;-146.25;100.00;52199.91;2073966;28;20058;-66
2023/05/31 02:57:37;;;;;;;27.80;9.50;;;;;;;-146.25;100.00;52216.13;2080082;28;20049;-67
2023/05/31 02:58:41;;;;;;;33.65;10.55;;;;;;;-146.25;100.00;52234.38;2079543;28;20052;-66
2023/05/31 03:00:10;;;;;;;29.10;10.45;;;;;;;-146.25;100.00;52197.88;2079214;28;20042;-66
2023/05/31 03:01:13;;;;;;;29.88;10.68;;;;;;;-146.25;100.00;52264.78;2087615;28;20049;-66
2023/05/31 03:02:25;;;;;;;28.67;10.32;;;;;;;-146.25;100.00;52230.31;2079878;28;20802;-66
2023/05/31 03:03:34;;;;;;;25.23;10.43;;;;;;;-146.25;100.00;52256.69;2071959;28;20927;-66
2023/05/31 03:04:44;;;;;;;22.77;8.55;;;;;;;-146.25;100.00;52208.03;2072783;28;20043;-66
2023/05/31 03:05:46;;;;;;;27.95;9.75;;;;;;;-146.25;100.00;52228.28;2071352;28;20042;-67
2023/05/31 03:06:49;;;;;;;32.40;10.50;;;;;;;-146.25;100.00;52238.44;2071638;28;20057;-66
2023/05/31 03:07:51;;;;;;;28.73;11.25;;;;;;;-146.25;100.00;52281.00;2079597;28;20084;-66
2023/05/31 03:08:53;;;;;;;26.40;9.68;;;;;;;-146.25;100.00;52268.84;2079617;28;30476;-67
2023/05/31 03:09:55;;;;;;;25.25;9.75;;;;;;;-146.25;100.00;52222.22;2079581;28;20093;-66
2023/05/31 03:11:02;;;;;;;29.80;10.50;;;;;;;-146.25;100.00;52262.75;2079302;28;26895;-67
2023/05/31 03:12:08;;;;;;;28.80;10.23;;;;;;;-146.25;100.00;52238.44;2087446;28;20115;-67
2023/05/31 03:13:15;;;;;;;24.73;9.60;;;;;;;-146.25;100.00;52218.16;2087920;28;20052;-67
2023/05/31 03:14:17;;;;;;;21.98;8.73;;;;;;;-146.25;100.00;52234.38;2087423;28;20037;-67
2023/05/31 03:15:21;;;;;;;21.98;8.88;;;;;;;-146.25;100.00;52250.59;2079808;28;20042;-66
2023/05/31 03:16:24;;;;;;;28.48;10.15;;;;;;;-146.25;100.00;52270.88;2079541;28;20097;-66
2023/05/31 03:17:28;;;;;;;27.58;9.90;;;;;;;-146.25;100.00;52214.09;2079590;28;20042;-66
2023/05/31 03:18:30;;;;;;;27.30;10.05;;;;;;;-146.25;100.00;52228.28;2071802;28;20046;-67
2023/05/31 03:19:33;;;;;;;25.20;9.38;;;;;;;-146.25;100.00;52224.25;2079566;28;20034;-66
2023/05/31 03:20:37;;;;;;;22.60;9.35;;;;;;;-146.25;100.00;52232.34;2079294;28;20038;-67
2023/05/31 03:21:39;;;;;;;23.35;9.95;;;;;;;-146.25;100.00;52246.53;2079665;28;20867;-67
2023/05/31 03:22:43;;;;;;;21.40;9.07;;;;;;;-146.25;100.00;52216.13;2079136;28;22249;-67
2023/05/31 03:23:46;;;;;;;24.05;9.68;;;;;;;-146.25;100.00;52250.59;2080255;28;20057;-67
2023/05/31 03:24:47;;;;;;;25.42;9.75;;;;;;;-146.25;100.00;52222.22;2087694;28;20042;-67
2023/05/31 03:25:55;;;;;;;26.75;10.13;;;;;;;-146.25;100.00;52228.28;2079644;28;20060;-66
2023/05/31 03:26:57;;;;;;;26.73;9.50;;;;;;;-146.25;100.00;52230.31;2079459;28;21933;-66
2023/05/31 03:28:02;;;;;;;25.83;9.38;;;;;;;-146.25;100.00;52232.34;2087788;28;20064;-66
2023/05/31 03:29:07;;;;;;;23.05;9.50;;;;;;;-146.25;100.00;52258.72;2087625;28;20081;-67
2023/05/31 03:30:10;;;;;;;26.50;9.10;;;;;;;-146.25;100.00;52274.94;2079297;28;20042;-67
2023/05/31 03:31:20;;;;;;;20.25;8.57;;;;;;;-146.25;100.00;52193.81;2079619;28;20938;-67
2023/05/31 03:32:22;;;;;;;24.30;8.60;;;;;;;-146.25;100.00;52234.38;2079361;28;20072;-66
2023/05/31 03:33:25;;;;;;;20.27;7.82;;;;;;;-146.25;100.00;52258.72;2079272;28;20053;-67
2023/05/31 03:34:29;;;;;;;20.67;9.05;;;;;;;-146.25;100.00;52260.72;2072892;28;20093;-66
2023/05/31 03:35:31;;;;;;;21.60;9.07;;;;;;;-146.25;100.00;52240.47;2073028;28;20050;-67
2023/05/31 03:36:38;;;;;;;22.50;8.95;;;;;;;-146.25;100.00;52236.41;2081133;28;20120;-67
2023/05/31 03:37:57;;;;;;;22.25;8.80;;;;;;;-146.25;100.00;52258.72;2075581;28;20042;-67
2023/05/31 03:38:59;;;;;;;25.30;9.32;;;;;;;-146.25;100.00;52246.53;2072515;28;20157;-67
2023/05/31 03:40:04;;;;;;;24.02;9.00;;;;;;;-146.25;100.00;52232.34;2081759;28;20168;-67
2023/05/31 03:41:06;;;;;;;18.35;8.13;;;;;;;-146.25;100.00;52224.25;2080635;28;20048;-66
2023/05/31 03:42:10;;;;;;;22.48;8.95;;;;;;;-146.25;100.00;52240.47;2081356;28;20053;-66
2023/05/31 03:43:14;;;;;;;21.80;9.10;;;;;;;-146.25;100.00;52226.25;2088667;28;20977;-66
2023/05/31 03:44:18;;;;;;;25.27;8.63;;;;;;;-146.25;100.00;52250.59;2089198;28;20924;-67
2023/05/31 03:45:20;;;;;;;21.10;9.15;;;;;;;-146.25;100.00;52234.38;2080459;28;20926;-67
2023/05/31 03:46:23;;;;;;;19.48;8.68;;;;;;;-146.25;100.00;52252.63;2072765;28;20069;-67
2023/05/31 03:47:24;;;;;;;21.33;9.18;;;;;;;-146.25;100.00;52270.88;2072498;28;20653;-67
2023/05/31 03:48:28;;;;;;;20.23;8.80;;;;;;;-146.25;100.00;52272.91;2081201;28;20038;-67
2023/05/31 03:49:29;;;;;;;22.48;8.65;;;;;;;-146.25;100.00;52238.44;2080605;28;20049;-67
2023/05/31 03:50:31;;;;;;;20.33;9.27;;;;;;;-146.25;100.00;52258.72;2081000;28;20050;-66
2023/05/31 03:51:34;;;;;;;21.27;9.55;;;;;;;-146.25;100.00;52281.00;2080569;28;20046;-67
2023/05/31 03:52:37;;;;;;;18.50;8.40;;;;;;;-146.25;100.00;52236.41;2080644;28;24850;-66
2023/05/31 03:53:39;;;;;;;20.00;9.15;;;;;;;-146.25;100.00;52234.38;2080990;28;29824;-67
2023/05/31 03:54:41;;;;;;;17.38;8.02;;;;;;;-146.25;100.00;52238.44;2081415;28;32330;-67
2023/05/31 03:55:42;;;;;;;17.83;7.93;;;;;;;-146.25;100.00;52244.50;2081060;28;28737;-67
2023/05/31 03:56:47;;;;;;;22.23;8.95;;;;;;;-146.25;100.00;52254.66;2081826;28;20147;-67
2023/05/31 03:57:49;;;;;;;17.73;7.65;;;;;;;-146.25;100.00;52272.91;2080976;28;20915;-66
2023/05/31 03:58:52;;;;;;;19.02;8.65;;;;;;;-146.25;100.00;52248.56;2081161;28;20136;-67
2023/05/31 03:59:55;;;;;;;15.75;7.20;;;;;;;-146.25;100.00;52246.53;2080662;28;20049;-67
2023/05/31 04:00:57;;;;;;;16.05;7.75;;;;;;;-146.25;100.00;52246.53;2089175;28;20955;-67
2023/05/31 04:02:02;;;;;;;15.20;8.35;;;;;;;-146.25;100.00;52236.41;2080724;28;20104;-67
2023/05/31 04:03:04;;;;;;;18.52;7.75;;;;;;;-146.25;100.00;52274.94;2080221;28;30330;-67
2023/05/31 04:04:09;;;;;;;18.45;8.10;;;;;;;-146.25;100.00;52266.81;2072404;28;20054;-67
2023/05/31 04:05:11;;;;;;;16.15;8.48;;;;;;;-146.25;100.00;52281.00;2073537;28;20050;-67
2023/05/31 04:06:12;;;;;;;13.93;7.43;;;;;;;-146.25;100.00;52276.97;2088961;28;20386;-67
2023/05/31 04:07:15;;;;;;;16.40;7.65;;;;;;;-146.25;100.00;52226.25;2080785;28;21080;-67
2023/05/31 04:08:20;;;;;;;12.75;7.57;;;;;;;-146.25;100.00;52258.72;2072600;28;20050;-66
2023/05/31 04:09:23;;;;;;;13.50;7.22;;;;;;;-146.25;100.00;52307.38;2081371;28;20076;-67
2023/05/31 04:10:28;;;;;;;11.05;6.75;;;;;;;-146.25;100.00;52315.47;2080698;28;20085;-66
2023/05/31 04:11:30;;;;;;;12.40;6.97;;;;;;;-146.25;100.00;52285.06;2072643;28;20053;-67
2023/05/31 04:12:32;;;;;;;11.13;5.75;;;;;;;-146.25;100.00;52250.59;2080652;28;20042;-66
2023/05/31 04:13:34;;;;;;;10.50;6.05;;;;;;;-146.25;100.00;52319.53;2088997;28;20041;-66
2023/05/31 04:14:35;;;;;;;9.85;6.00;;;;;;;-146.25;100.00;52327.66;2089077;28;20037;-66
2023/05/31 04:15:38;;;;;;;11.30;5.53;;;;;;;-146.25;100.00;52268.84;2081476;28;20034;-66
2023/05/31 04:16:40;;;;;;;9.18;5.35;;;;;;;-146.25;94.46;52317.50;2071983;28;20046;-66
2023/05/31 04:17:42;;;;;;;10.13;5.85;;;;;;;-146.25;99.70;52295.19;2080953;28;20120;-66
2023/05/31 04:18:43;;;;;;;10.55;5.05;;;;;;;-146.25;96.35;52311.44;2072352;28;20800;-65
2023/05/31 04:19:47;;;;;;;7.85;4.95;;;;;;;-146.25;90.18;52315.47;2072713;28;20050;-66
2023/05/31 04:20:49;;;;;;;9.13;5.07;;;;;;;-146.25;88.53;52270.88;2072120;28;20038;-66
2023/05/31 04:21:51;;;;;;;8.95;4.95;;;;;;;-146.25;85.79;52295.19;2073152;28;22507;-67
2023/05/31 04:22:53;;;;;;;9.25;5.05;;;;;;;-146.25;84.94;52278.97;2072221;28;20184;-66
2023/05/31 04:23:55;;;;;;;6.43;4.50;;;;;;;-146.25;82.09;52285.06;2064528;28;20177;-66
2023/05/31 04:24:57;;;;;;;6.85;4.60;;;;;;;-146.25;78.87;52274.94;2064231;28;21125;-66
2023/05/31 04:26:08;;;;;;;7.75;4.70;;;;;;;-146.25;78.04;52311.44;2073516;28;20088;-65
2023/05/31 04:27:11;;;;;;;10.02;4.65;;;;;;;-146.25;76.37;52295.19;2080082;28;20925;-66
2023/05/31 04:28:15;;;;;;;10.38;4.93;;;;;;;-146.25;76.66;52307.38;2072396;28;20936;-66
2023/05/31 04:29:17;;;;;;;8.20;4.45;;;;;;;-146.25;77.64;52311.44;2072339;28;20031;-66
2023/05/31 04:30:19;;;;;;;7.68;4.53;;;;;;;-146.25;76.29;52283.03;2064180;28;20043;-66
2023/05/31 04:31:24;;;;;;;7.05;4.38;;;;;;;-146.25;72.89;52293.19;2072776;28;20124;-67
2023/05/31 04:32:36;;;;;;;9.98;4.90;;;;;;;-146.25;72.63;52250.59;2072336;28;20049;-66
2023/05/31 04:33:41;;;;;;;9.10;4.90;;;;;;;-146.25;72.64;52242.50;2072640;28;21169;-66
2023/05/31 04:34:44;;;;;;;10.02;5.00;;;;;;;-146.25;71.56;52281.00;2072508;28;20076;-66
2023/05/31 04:35:46;;;;;;;7.22;4.60;;;;;;;-146.25;68.87;52256.69;2072564;28;20151;-67
2023/05/31 04:36:49;;;;;;;8.98;4.72;;;;;;;-146.25;68.95;52283.03;2072192;28;27420;-65
2023/05/31 04:37:59;;;;;;;9.98;4.15;;;;;;;-146.25;69.65;52252.63;2065385;28;20043;-66
2023/05/31 04:39:05;;;;;;;10.75;5.25;;;;;;;-146.25;70.76;52264.78;2072829;28;20121;-67
2023/05/31 04:40:09;;;;;;;11.48;4.90;;;;;;;-146.25;66.23;52228.28;2072379;28;21037;-66
2023/05/31 04:41:11;;;;;;;12.70;5.03;;;;;;;-146.25;62.59;52248.56;2065050;28;20050;-66
2023/05/31 04:42:16;;;;;;;8.82;4.88;;;;;;;-146.25;64.36;52250.59;2072851;28;20050;-65
2023/05/31 04:43:17;;;;;;;7.28;4.50;;;;;;;-146.25;63.43;52256.69;2072026;28;20184;-66
2023/05/31 04:44:21;;;;;;;7.97;3.90;;;;;;;-146.25;63.27;52236.41;2064180;28;20050;-66
2023/05/31 04:45:27;;;;;;;8.07;4.22;;;;;;;-146.25;61.23;52254.66;2072699;28;20129;-64
2023/05/31 04:46:32;;;;;;;8.07;4.38;;;;;;;-146.25;60.83;52185.72;2079419;28;20231;-65
2023/05/31 04:47:36;;;;;;;7.65;4.20;;;;;;;-146.25;60.35;52222.22;2080464;28;20180;-65
2023/05/31 04:48:41;;;;;;;10.73;4.65;;;;;;;-146.25;57.60;52216.13;2080673;28;20061;-64
2023/05/31 04:49:43;;;;;;;8.18;4.50;;;;;;;-146.25;58.18;52272.91;2072465;28;21301;-64